sensor_id;sensor_type;location;lat;lon;timestamp;pressure;altitude;pressure_sealevel;temperature;humidity
23253;BME280;11795;47.054;15.408;2022-09-09T00:00:01;97280;;;17.4;72.7
23253;BME280;11795;47.054;15.408;2022-09-09T00:02:04;97280;;;17.3;73.0
23253;BME280;11795;47.054;15.408;2022-09-09T00:04:05;97280;;;17.4;72.5
23253;BME280;11795;47.054;15.408;2022-09-09T00:06:05;97280;;;17.3;73.0
23253;BME280;11795;47.054;15.408;2022-09-09T00:08:02;97280;;;17.5;72.5
23253;BME280;11795;47.054;15.408;2022-09-09T00:10:09;97290;;;17.3;72.7
23253;BME280;11795;47.054;15.408;2022-09-09T00:12:06;97290;;;17.2;73.4
23253;BME280;11795;47.054;15.408;2022-09-09T00:14:03;97290;;;17.3;73.1
23253;BME280;11795;47.054;15.408;2022-09-09T00:16:05;97300;;;17.1;73.6
23253;BME280;11795;47.054;15.408;2022-09-09T00:18:07;97300;;;17.2;73.7
23253;BME280;11795;47.054;15.408;2022-09-09T00:20:04;97300;;;17.1;74.0
23253;BME280;11795;47.054;15.408;2022-09-09T00:22:12;97290;;;16.9;74.6
23253;BME280;11795;47.054;15.408;2022-09-09T00:24:04;97300;;;17.0;74.3
23253;BME280;11795;47.054;15.408;2022-09-09T00:26:04;97290;;;16.8;75.1
23253;BME280;11795;47.054;15.408;2022-09-09T00:28:00;97290;;;17.0;74.7
23253;BME280;11795;47.054;15.408;2022-09-09T00:30:12;97300;;;16.8;74.8
23253;BME280;11795;47.054;15.408;2022-09-09T00:32:09;97300;;;16.8;75.1
23253;BME280;11795;47.054;15.408;2022-09-09T00:34:07;97300;;;16.9;74.8
23253;BME280;11795;47.054;15.408;2022-09-09T00:36:00;97300;;;16.7;75.6
23253;BME280;11795;47.054;15.408;2022-09-09T00:38:03;97290;;;16.7;75.8
23253;BME280;11795;47.054;15.408;2022-09-09T00:40:08;97290;;;16.5;76.3
23253;BME280;11795;47.054;15.408;2022-09-09T00:42:12;97290;;;16.5;76.7
23253;BME280;11795;47.054;15.408;2022-09-09T00:44:03;97290;;;16.6;76.1
23253;BME280;11795;47.054;15.408;2022-09-09T00:48:03;97290;;;16.5;76.9
23253;BME280;11795;47.054;15.408;2022-09-09T00:50:05;97290;;;16.4;77.0
23253;BME280;11795;47.054;15.408;2022-09-09T00:52:11;97290;;;16.4;77.2
23253;BME280;11795;47.054;15.408;2022-09-09T00:54:14;97290;;;16.4;76.8
23253;BME280;11795;47.054;15.408;2022-09-09T00:56:09;97290;;;16.3;77.3
23253;BME280;11795;47.054;15.408;2022-09-09T00:58:00;97290;;;16.5;77.0
23253;BME280;11795;47.054;15.408;2022-09-09T01:00:16;97290;;;16.3;77.2
23253;BME280;11795;47.054;15.408;2022-09-09T01:02:04;97290;;;16.2;77.5
23253;BME280;11795;47.054;15.408;2022-09-09T01:04:04;97280;;;16.3;77.1
23253;BME280;11795;47.054;15.408;2022-09-09T01:06:02;97280;;;16.1;77.6
23253;BME280;11795;47.054;15.408;2022-09-09T01:08:03;97280;;;16.3;77.3
23253;BME280;11795;47.054;15.408;2022-09-09T01:10:03;97290;;;16.1;77.5
23253;BME280;11795;47.054;15.408;2022-09-09T01:12:03;97290;;;16.0;78.1
23253;BME280;11795;47.054;15.408;2022-09-09T01:16:01;97290;;;15.9;78.5
23253;BME280;11795;47.054;15.408;2022-09-09T01:18:04;97300;;;16.1;78.3
23253;BME280;11795;47.054;15.408;2022-09-09T01:20:06;97300;;;16.0;78.1
23253;BME280;11795;47.054;15.408;2022-09-09T01:22:06;97290;;;15.9;78.6
23253;BME280;11795;47.054;15.408;2022-09-09T01:24:14;97290;;;16.0;78.1
23253;BME280;11795;47.054;15.408;2022-09-09T01:26:12;97290;;;15.9;78.6
23253;BME280;11795;47.054;15.408;2022-09-09T01:28:02;97290;;;16.0;78.5
23253;BME280;11795;47.054;15.408;2022-09-09T01:30:00;97300;;;15.9;78.5
23253;BME280;11795;47.054;15.408;2022-09-09T01:32:02;97300;;;15.9;78.6
23253;BME280;11795;47.054;15.408;2022-09-09T01:34:00;97300;;;16.0;77.8
23253;BME280;11795;47.054;15.408;2022-09-09T01:36:05;97300;;;15.9;78.4
23253;BME280;11795;47.054;15.408;2022-09-09T01:38:00;97310;;;15.9;78.7
23253;BME280;11795;47.054;15.408;2022-09-09T01:40:00;97310;;;15.8;79.0
23253;BME280;11795;47.054;15.408;2022-09-09T01:42:00;97300;;;15.7;79.3
23253;BME280;11795;47.054;15.408;2022-09-09T01:44:01;97310;;;15.9;79.0
23253;BME280;11795;47.054;15.408;2022-09-09T01:46:01;97300;;;15.7;79.5
23253;BME280;11795;47.054;15.408;2022-09-09T01:48:01;97300;;;15.8;79.4
23253;BME280;11795;47.054;15.408;2022-09-09T01:50:01;97300;;;15.7;79.4
23253;BME280;11795;47.054;15.408;2022-09-09T01:52:00;97300;;;15.6;79.9
23253;BME280;11795;47.054;15.408;2022-09-09T01:54:01;97300;;;15.8;79.4
23253;BME280;11795;47.054;15.408;2022-09-09T01:56:07;97300;;;15.6;80.1
23253;BME280;11795;47.054;15.408;2022-09-09T01:58:10;97310;;;15.6;80.2
23253;BME280;11795;47.054;15.408;2022-09-09T02:00:04;97300;;;15.6;79.9
23253;BME280;11795;47.054;15.408;2022-09-09T02:02:09;97290;;;15.5;80.3
23253;BME280;11795;47.054;15.408;2022-09-09T02:04:03;97290;;;15.6;80.1
23253;BME280;11795;47.054;15.408;2022-09-09T02:06:08;97290;;;15.5;80.9
23253;BME280;11795;47.054;15.408;2022-09-09T02:08:05;97290;;;15.6;80.8
23253;BME280;11795;47.054;15.408;2022-09-09T02:10:05;97290;;;15.5;80.7
23253;BME280;11795;47.054;15.408;2022-09-09T02:12:06;97300;;;15.4;81.0
23253;BME280;11795;47.054;15.408;2022-09-09T02:14:04;97300;;;15.6;80.4
23253;BME280;11795;47.054;15.408;2022-09-09T02:16:04;97300;;;15.5;80.9
23253;BME280;11795;47.054;15.408;2022-09-09T02:18:01;97300;;;15.5;80.9
23253;BME280;11795;47.054;15.408;2022-09-09T02:20:04;97300;;;15.5;80.7
23253;BME280;11795;47.054;15.408;2022-09-09T02:22:01;97300;;;15.4;81.2
23253;BME280;11795;47.054;15.408;2022-09-09T02:24:04;97300;;;15.6;80.5
23253;BME280;11795;47.054;15.408;2022-09-09T02:26:01;97300;;;15.4;81.3
23253;BME280;11795;47.054;15.408;2022-09-09T02:28:01;97300;;;15.4;81.5
23253;BME280;11795;47.054;15.408;2022-09-09T02:30:02;97310;;;15.3;81.7
23253;BME280;11795;47.054;15.408;2022-09-09T02:32:06;97310;;;15.3;82.3
23253;BME280;11795;47.054;15.408;2022-09-09T02:34:01;97310;;;15.4;81.7
23253;BME280;11795;47.054;15.408;2022-09-09T02:36:05;97310;;;15.2;82.4
23253;BME280;11795;47.054;15.408;2022-09-09T02:38:04;97310;;;15.2;82.8
23253;BME280;11795;47.054;15.408;2022-09-09T02:40:01;97310;;;15.3;82.3
23253;BME280;11795;47.054;15.408;2022-09-09T02:42:00;97320;;;15.2;82.7
23253;BME280;11795;47.054;15.408;2022-09-09T02:44:01;97320;;;15.4;82.2
23253;BME280;11795;47.054;15.408;2022-09-09T02:46:07;97320;;;15.3;82.7
23253;BME280;11795;47.054;15.408;2022-09-09T02:48:06;97320;;;15.3;82.9
23253;BME280;11795;47.054;15.408;2022-09-09T02:50:10;97330;;;15.3;82.6
23253;BME280;11795;47.054;15.408;2022-09-09T02:52:02;97330;;;15.2;83.1
23253;BME280;11795;47.054;15.408;2022-09-09T02:54:05;97330;;;15.4;82.4
23253;BME280;11795;47.054;15.408;2022-09-09T02:56:04;97330;;;15.4;82.3
23253;BME280;11795;47.054;15.408;2022-09-09T02:58:01;97340;;;15.4;82.9
23253;BME280;11795;47.054;15.408;2022-09-09T03:00:03;97340;;;15.4;82.9
23253;BME280;11795;47.054;15.408;2022-09-09T03:02:01;97340;;;15.2;83.8
23253;BME280;11795;47.054;15.408;2022-09-09T03:04:00;97340;;;15.5;83.6
23253;BME280;11795;47.054;15.408;2022-09-09T03:06:00;97340;;;15.4;84.0
23253;BME280;11795;47.054;15.408;2022-09-09T03:08:00;97340;;;15.3;84.9
23253;BME280;11795;47.054;15.408;2022-09-09T03:10:00;97340;;;15.3;84.9
23253;BME280;11795;47.054;15.408;2022-09-09T03:12:01;97330;;;15.1;85.6
23253;BME280;11795;47.054;15.408;2022-09-09T03:14:01;97330;;;15.3;85.4
23253;BME280;11795;47.054;15.408;2022-09-09T03:16:00;97320;;;15.2;85.8
23253;BME280;11795;47.054;15.408;2022-09-09T03:18:00;97320;;;15.2;86.1
23253;BME280;11795;47.054;15.408;2022-09-09T03:20:01;97320;;;15.5;85.0
23253;BME280;11795;47.054;15.408;2022-09-09T03:22:00;97310;;;15.4;85.5
23253;BME280;11795;47.054;15.408;2022-09-09T03:24:00;97310;;;15.4;85.8
23253;BME280;11795;47.054;15.408;2022-09-09T03:26:01;97310;;;15.3;86.5
23253;BME280;11795;47.054;15.408;2022-09-09T03:28:01;97310;;;15.3;86.6
23253;BME280;11795;47.054;15.408;2022-09-09T03:30:04;97310;;;15.3;86.6
23253;BME280;11795;47.054;15.408;2022-09-09T03:32:00;97320;;;15.2;87.5
23253;BME280;11795;47.054;15.408;2022-09-09T03:34:00;97320;;;15.3;86.9
23253;BME280;11795;47.054;15.408;2022-09-09T03:36:00;97330;;;15.2;87.2
23253;BME280;11795;47.054;15.408;2022-09-09T03:38:00;97340;;;15.1;87.6
23253;BME280;11795;47.054;15.408;2022-09-09T03:40:01;97330;;;15.3;86.9
23253;BME280;11795;47.054;15.408;2022-09-09T03:42:04;97340;;;15.2;87.4
23253;BME280;11795;47.054;15.408;2022-09-09T03:44:00;97330;;;15.4;86.8
23253;BME280;11795;47.054;15.408;2022-09-09T03:46:00;97330;;;15.3;87.1
23253;BME280;11795;47.054;15.408;2022-09-09T03:48:01;97330;;;15.2;87.4
23253;BME280;11795;47.054;15.408;2022-09-09T03:50:00;97330;;;15.3;86.7
23253;BME280;11795;47.054;15.408;2022-09-09T03:52:01;97340;;;15.3;87.1
23253;BME280;11795;47.054;15.408;2022-09-09T03:54:00;97340;;;15.4;86.5
23253;BME280;11795;47.054;15.408;2022-09-09T03:56:01;97340;;;15.3;86.9
23253;BME280;11795;47.054;15.408;2022-09-09T03:58:00;97340;;;15.3;87.2
23253;BME280;11795;47.054;15.408;2022-09-09T04:00:03;97340;;;15.4;86.5
23253;BME280;11795;47.054;15.408;2022-09-09T04:02:00;97340;;;15.3;87.0
23253;BME280;11795;47.054;15.408;2022-09-09T04:04:02;97340;;;15.5;86.6
23253;BME280;11795;47.054;15.408;2022-09-09T04:06:02;97340;;;15.4;86.7
23253;BME280;11795;47.054;15.408;2022-09-09T04:08:00;97330;;;15.3;87.0
23253;BME280;11795;47.054;15.408;2022-09-09T04:10:00;97330;;;15.4;86.2
23253;BME280;11795;47.054;15.408;2022-09-09T04:12:00;97340;;;15.3;86.8
23253;BME280;11795;47.054;15.408;2022-09-09T04:14:00;97340;;;15.5;86.3
23253;BME280;11795;47.054;15.408;2022-09-09T04:16:02;97330;;;15.4;86.6
23253;BME280;11795;47.054;15.408;2022-09-09T04:18:01;97320;;;15.3;87.1
23253;BME280;11795;47.054;15.408;2022-09-09T04:20:01;97320;;;15.4;86.4
23253;BME280;11795;47.054;15.408;2022-09-09T04:22:00;97320;;;15.3;86.9
23253;BME280;11795;47.054;15.408;2022-09-09T04:24:00;97330;;;15.5;86.1
23253;BME280;11795;47.054;15.408;2022-09-09T04:26:02;97330;;;15.4;86.4
23253;BME280;11795;47.054;15.408;2022-09-09T04:28:00;97330;;;15.3;86.9
23253;BME280;11795;47.054;15.408;2022-09-09T04:30:00;97330;;;15.4;86.2
23253;BME280;11795;47.054;15.408;2022-09-09T04:32:00;97320;;;15.3;86.6
23253;BME280;11795;47.054;15.408;2022-09-09T04:34:05;97320;;;15.5;86.0
23253;BME280;11795;47.054;15.408;2022-09-09T04:36:00;97320;;;15.4;86.3
23253;BME280;11795;47.054;15.408;2022-09-09T04:38:01;97320;;;15.3;86.8
23253;BME280;11795;47.054;15.408;2022-09-09T04:40:02;97320;;;15.4;85.9
23253;BME280;11795;47.054;15.408;2022-09-09T04:42:00;97320;;;15.3;86.7
23253;BME280;11795;47.054;15.408;2022-09-09T04:44:01;97320;;;15.5;86.4
23253;BME280;11795;47.054;15.408;2022-09-09T04:46:00;97310;;;15.2;87.6
23253;BME280;11795;47.054;15.408;2022-09-09T04:48:01;97310;;;15.1;88.5
23253;BME280;11795;47.054;15.408;2022-09-09T04:50:00;97310;;;15.3;88.0
23253;BME280;11795;47.054;15.408;2022-09-09T04:52:01;97320;;;15.2;88.4
23253;BME280;11795;47.054;15.408;2022-09-09T04:54:00;97310;;;15.4;87.8
23253;BME280;11795;47.054;15.408;2022-09-09T04:56:02;97310;;;15.3;88.0
23253;BME280;11795;47.054;15.408;2022-09-09T04:58:03;97310;;;15.2;88.4
23253;BME280;11795;47.054;15.408;2022-09-09T05:00:00;97310;;;15.4;87.5
23253;BME280;11795;47.054;15.408;2022-09-09T05:02:01;97320;;;15.3;88.0
23253;BME280;11795;47.054;15.408;2022-09-09T05:04:01;97320;;;15.5;87.5
23253;BME280;11795;47.054;15.408;2022-09-09T05:06:03;97320;;;15.4;87.5
23253;BME280;11795;47.054;15.408;2022-09-09T05:08:01;97330;;;15.4;87.8
23253;BME280;11795;47.054;15.408;2022-09-09T05:10:00;97320;;;15.6;87.0
23253;BME280;11795;47.054;15.408;2022-09-09T05:12:01;97320;;;15.5;87.5
23253;BME280;11795;47.054;15.408;2022-09-09T05:14:01;97320;;;15.7;87.0
23253;BME280;11795;47.054;15.408;2022-09-09T05:16:00;97310;;;15.6;87.0
23253;BME280;11795;47.054;15.408;2022-09-09T05:18:00;97310;;;15.6;87.2
23253;BME280;11795;47.054;15.408;2022-09-09T05:20:00;97310;;;15.8;86.1
23253;BME280;11795;47.054;15.408;2022-09-09T05:22:01;97300;;;15.7;86.5
23253;BME280;11795;47.054;15.408;2022-09-09T05:24:00;97300;;;15.9;85.8
23253;BME280;11795;47.054;15.408;2022-09-09T05:26:00;97300;;;15.8;85.9
23253;BME280;11795;47.054;15.408;2022-09-09T05:28:01;97310;;;15.9;86.3
23253;BME280;11795;47.054;15.408;2022-09-09T05:30:00;97310;;;16.2;85.2
23253;BME280;11795;47.054;15.408;2022-09-09T05:32:00;97310;;;16.4;84.6
23253;BME280;11795;47.054;15.408;2022-09-09T05:34:00;97310;;;16.7;83.3
23253;BME280;11795;47.054;15.408;2022-09-09T05:36:03;97310;;;16.8;82.9
23253;BME280;11795;47.054;15.408;2022-09-09T05:38:00;97300;;;16.9;82.1
23253;BME280;11795;47.054;15.408;2022-09-09T05:40:01;97310;;;17.3;80.8
23253;BME280;11795;47.054;15.408;2022-09-09T05:42:01;97300;;;17.4;79.8
23253;BME280;11795;47.054;15.408;2022-09-09T05:44:01;97300;;;17.7;77.7
23253;BME280;11795;47.054;15.408;2022-09-09T05:46:03;97310;;;17.8;76.6
23253;BME280;11795;47.054;15.408;2022-09-09T05:48:02;97310;;;17.9;76.1
23253;BME280;11795;47.054;15.408;2022-09-09T05:50:01;97310;;;18.1;74.9
23253;BME280;11795;47.054;15.408;2022-09-09T05:52:00;97320;;;18.3;74.3
23253;BME280;11795;47.054;15.408;2022-09-09T05:54:00;97320;;;18.6;72.9
23253;BME280;11795;47.054;15.408;2022-09-09T05:56:01;97320;;;18.7;72.1
23253;BME280;11795;47.054;15.408;2022-09-09T05:58:01;97320;;;18.9;70.7
23253;BME280;11795;47.054;15.408;2022-09-09T06:00:01;97320;;;19.1;69.0
23253;BME280;11795;47.054;15.408;2022-09-09T06:02:00;97320;;;19.2;68.9
23253;BME280;11795;47.054;15.408;2022-09-09T06:04:00;97320;;;19.3;69.0
23253;BME280;11795;47.054;15.408;2022-09-09T06:06:01;97320;;;19.2;68.8
23253;BME280;11795;47.054;15.408;2022-09-09T06:08:00;97320;;;19.0;69.0
23253;BME280;11795;47.054;15.408;2022-09-09T06:10:00;97320;;;19.0;68.2
23253;BME280;11795;47.054;15.408;2022-09-09T06:12:00;97320;;;18.9;68.8
23253;BME280;11795;47.054;15.408;2022-09-09T06:14:00;97320;;;18.9;68.2
23253;BME280;11795;47.054;15.408;2022-09-09T06:16:00;97320;;;18.8;68.7
23253;BME280;11795;47.054;15.408;2022-09-09T06:18:00;97320;;;18.7;69.4
23253;BME280;11795;47.054;15.408;2022-09-09T06:20:00;97320;;;18.5;69.7
23253;BME280;11795;47.054;15.408;2022-09-09T06:22:00;97330;;;18.4;70.7
23253;BME280;11795;47.054;15.408;2022-09-09T06:24:00;97320;;;18.4;70.8
23253;BME280;11795;47.054;15.408;2022-09-09T06:26:03;97320;;;18.3;71.2
23253;BME280;11795;47.054;15.408;2022-09-09T06:28:00;97320;;;18.4;71.6
23253;BME280;11795;47.054;15.408;2022-09-09T06:30:00;97320;;;18.5;71.2
23253;BME280;11795;47.054;15.408;2022-09-09T06:32:01;97320;;;18.4;72.3
23253;BME280;11795;47.054;15.408;2022-09-09T06:34:01;97310;;;18.5;72.5
23253;BME280;11795;47.054;15.408;2022-09-09T06:36:01;97320;;;18.5;72.2
23253;BME280;11795;47.054;15.408;2022-09-09T06:38:00;97320;;;18.5;72.3
23253;BME280;11795;47.054;15.408;2022-09-09T06:40:00;97330;;;18.9;71.0
23253;BME280;11795;47.054;15.408;2022-09-09T06:42:00;97320;;;18.8;70.3
23253;BME280;11795;47.054;15.408;2022-09-09T06:44:01;97320;;;18.9;70.2
23253;BME280;11795;47.054;15.408;2022-09-09T06:46:02;97330;;;18.8;70.6
23253;BME280;11795;47.054;15.408;2022-09-09T06:48:00;97340;;;18.8;70.3
23253;BME280;11795;47.054;15.408;2022-09-09T06:50:00;97340;;;18.7;70.7
23253;BME280;11795;47.054;15.408;2022-09-09T06:52:00;97330;;;18.5;71.0
23253;BME280;11795;47.054;15.408;2022-09-09T06:54:02;97330;;;18.5;71.9
23253;BME280;11795;47.054;15.408;2022-09-09T06:56:02;97330;;;18.4;71.7
23253;BME280;11795;47.054;15.408;2022-09-09T06:58:00;97330;;;18.3;71.3
23253;BME280;11795;47.054;15.408;2022-09-09T07:00:01;97330;;;18.4;71.1
23253;BME280;11795;47.054;15.408;2022-09-09T07:02:01;97340;;;18.5;71.3
23253;BME280;11795;47.054;15.408;2022-09-09T08:14:00;97350;;;18.5;70.8
23253;BME280;11795;47.054;15.408;2022-09-09T08:16:04;97360;;;18.6;70.1
23253;BME280;11795;47.054;15.408;2022-09-09T08:18:00;97360;;;18.5;70.2
23253;BME280;11795;47.054;15.408;2022-09-09T08:20:05;97350;;;18.8;69.5
23253;BME280;11795;47.054;15.408;2022-09-09T08:22:02;97350;;;18.7;69.8
23253;BME280;11795;47.054;15.408;2022-09-09T08:24:01;97360;;;18.7;70.0
23253;BME280;11795;47.054;15.408;2022-09-09T08:26:05;97360;;;18.7;69.3
23253;BME280;11795;47.054;15.408;2022-09-09T08:28:00;97360;;;18.6;69.7
23253;BME280;11795;47.054;15.408;2022-09-09T08:30:00;97360;;;18.8;69.7
23253;BME280;11795;47.054;15.408;2022-09-09T08:32:02;97360;;;18.7;69.9
23253;BME280;11795;47.054;15.408;2022-09-09T08:34:01;97360;;;18.8;70.2
23253;BME280;11795;47.054;15.408;2022-09-09T08:36:00;97370;;;18.9;70.1
23253;BME280;11795;47.054;15.408;2022-09-09T08:38:00;97380;;;18.9;70.2
23253;BME280;11795;47.054;15.408;2022-09-09T08:40:00;97380;;;19.0;69.5
23253;BME280;11795;47.054;15.408;2022-09-09T08:42:13;97380;;;19.0;69.4
23253;BME280;11795;47.054;15.408;2022-09-09T08:44:04;97380;;;18.9;69.6
23253;BME280;11795;47.054;15.408;2022-09-09T08:46:03;97380;;;19.0;69.1
23253;BME280;11795;47.054;15.408;2022-09-09T08:48:06;97380;;;18.9;69.3
23253;BME280;11795;47.054;15.408;2022-09-09T08:50:08;97380;;;19.0;67.0
23253;BME280;11795;47.054;15.408;2022-09-09T08:52:00;97370;;;18.9;68.5
23253;BME280;11795;47.054;15.408;2022-09-09T08:54:02;97380;;;18.9;69.5
23253;BME280;11795;47.054;15.408;2022-09-09T08:56:03;97380;;;19.0;69.4
23253;BME280;11795;47.054;15.408;2022-09-09T08:58:06;97380;;;18.9;70.0
23253;BME280;11795;47.054;15.408;2022-09-09T09:00:00;97380;;;19.1;68.8
23253;BME280;11795;47.054;15.408;2022-09-09T09:02:06;97380;;;19.0;69.4
23253;BME280;11795;47.054;15.408;2022-09-09T09:04:06;97380;;;19.1;69.3
23253;BME280;11795;47.054;15.408;2022-09-09T09:06:05;97370;;;19.5;68.7
23253;BME280;11795;47.054;15.408;2022-09-09T09:08:07;97370;;;19.6;68.9
23253;BME280;11795;47.054;15.408;2022-09-09T09:10:04;97370;;;19.9;67.9
23253;BME280;11795;47.054;15.408;2022-09-09T09:12:01;97370;;;19.9;66.7
23253;BME280;11795;47.054;15.408;2022-09-09T09:14:03;97370;;;19.8;66.5
23253;BME280;11795;47.054;15.408;2022-09-09T09:16:07;97370;;;20.0;65.6
23253;BME280;11795;47.054;15.408;2022-09-09T09:18:00;97370;;;19.9;65.6
23253;BME280;11795;47.054;15.408;2022-09-09T09:20:00;97370;;;20.2;64.6
23253;BME280;11795;47.054;15.408;2022-09-09T09:22:05;97370;;;20.1;64.9
23253;BME280;11795;47.054;15.408;2022-09-09T09:24:01;97360;;;20.2;65.2
23253;BME280;11795;47.054;15.408;2022-09-09T09:26:00;97360;;;20.5;64.2
23253;BME280;11795;47.054;15.408;2022-09-09T09:28:02;97360;;;20.5;64.5
23253;BME280;11795;47.054;15.408;2022-09-09T09:30:02;97360;;;20.8;63.4
23253;BME280;11795;47.054;15.408;2022-09-09T09:32:03;97360;;;20.8;62.4
23253;BME280;11795;47.054;15.408;2022-09-09T09:34:00;97360;;;20.9;62.5
23253;BME280;11795;47.054;15.408;2022-09-09T09:36:00;97350;;;21.2;62.7
23253;BME280;11795;47.054;15.408;2022-09-09T09:38:01;97350;;;21.3;62.9
23253;BME280;11795;47.054;15.408;2022-09-09T09:40:08;97350;;;21.6;62.7
23253;BME280;11795;47.054;15.408;2022-09-09T09:42:09;97350;;;21.6;62.6
23253;BME280;11795;47.054;15.408;2022-09-09T09:44:02;97340;;;21.6;61.5
23253;BME280;11795;47.054;15.408;2022-09-09T09:46:03;97350;;;21.7;60.5
23253;BME280;11795;47.054;15.408;2022-09-09T09:48:01;97350;;;21.6;60.0
23253;BME280;11795;47.054;15.408;2022-09-09T09:50:02;97360;;;21.8;59.8
23253;BME280;11795;47.054;15.408;2022-09-09T09:52:00;97360;;;21.8;60.4
23253;BME280;11795;47.054;15.408;2022-09-09T09:54:09;97350;;;21.9;60.4
23253;BME280;11795;47.054;15.408;2022-09-09T09:56:01;97350;;;22.2;59.5
23253;BME280;11795;47.054;15.408;2022-09-09T09:58:02;97350;;;22.1;57.7
23253;BME280;11795;47.054;15.408;2022-09-09T10:00:04;97340;;;22.3;56.9
23253;BME280;11795;47.054;15.408;2022-09-09T10:02:14;97340;;;22.3;56.8
23253;BME280;11795;47.054;15.408;2022-09-09T10:04:02;97340;;;22.5;57.9
23253;BME280;11795;47.054;15.408;2022-09-09T10:06:00;97340;;;22.8;56.6
23253;BME280;11795;47.054;15.408;2022-09-09T10:08:03;97340;;;22.9;56.0
23253;BME280;11795;47.054;15.408;2022-09-09T10:10:01;97340;;;23.1;54.9
23253;BME280;11795;47.054;15.408;2022-09-09T10:12:04;97340;;;22.9;55.1
23253;BME280;11795;47.054;15.408;2022-09-09T10:14:11;97340;;;22.7;55.1
23253;BME280;11795;47.054;15.408;2022-09-09T10:16:09;97340;;;22.7;54.5
23253;BME280;11795;47.054;15.408;2022-09-09T10:18:16;97340;;;22.6;55.7
23253;BME280;11795;47.054;15.408;2022-09-09T10:20:13;97340;;;22.7;55.2
23253;BME280;11795;47.054;15.408;2022-09-09T10:22:06;97350;;;22.5;55.5
23253;BME280;11795;47.054;15.408;2022-09-09T10:24:10;97350;;;22.5;56.1
23253;BME280;11795;47.054;15.408;2022-09-09T10:26:10;97340;;;22.7;56.3
23253;BME280;11795;47.054;15.408;2022-09-09T10:28:15;97330;;;22.7;56.7
23253;BME280;11795;47.054;15.408;2022-09-09T10:30:05;97320;;;23.0;56.4
23253;BME280;11795;47.054;15.408;2022-09-09T10:32:06;97330;;;22.9;54.9
23253;BME280;11795;47.054;15.408;2022-09-09T10:34:11;97330;;;22.9;55.1
23253;BME280;11795;47.054;15.408;2022-09-09T10:36:06;97320;;;23.2;55.5
23253;BME280;11795;47.054;15.408;2022-09-09T10:38:11;97320;;;23.3;54.9
23253;BME280;11795;47.054;15.408;2022-09-09T10:40:15;97330;;;23.6;54.1
23253;BME280;11795;47.054;15.408;2022-09-09T10:42:05;97320;;;23.6;53.9
23253;BME280;11795;47.054;15.408;2022-09-09T10:44:12;97310;;;23.6;54.0
23253;BME280;11795;47.054;15.408;2022-09-09T10:46:06;97310;;;23.8;54.0
23253;BME280;11795;47.054;15.408;2022-09-09T10:48:13;97310;;;23.7;53.6
23253;BME280;11795;47.054;15.408;2022-09-09T10:50:13;97320;;;23.8;52.3
23253;BME280;11795;47.054;15.408;2022-09-09T10:52:07;97320;;;23.6;52.0
23253;BME280;11795;47.054;15.408;2022-09-09T10:54:15;97310;;;23.4;52.6
23253;BME280;11795;47.054;15.408;2022-09-09T10:56:03;97310;;;23.5;52.9
23253;BME280;11795;47.054;15.408;2022-09-09T10:58:03;97310;;;23.3;53.5
23253;BME280;11795;47.054;15.408;2022-09-09T11:00:04;97310;;;23.4;53.7
23253;BME280;11795;47.054;15.408;2022-09-09T11:02:05;97310;;;23.2;52.5
23253;BME280;11795;47.054;15.408;2022-09-09T11:04:03;97300;;;23.0;53.4
23253;BME280;11795;47.054;15.408;2022-09-09T11:06:04;97300;;;23.1;53.5
23253;BME280;11795;47.054;15.408;2022-09-09T11:08:03;97300;;;22.9;54.5
23253;BME280;11795;47.054;15.408;2022-09-09T11:10:03;97300;;;23.0;53.7
23253;BME280;11795;47.054;15.408;2022-09-09T11:12:02;97300;;;22.8;53.0
23253;BME280;11795;47.054;15.408;2022-09-09T11:14:05;97300;;;22.7;53.6
23253;BME280;11795;47.054;15.408;2022-09-09T11:16:04;97300;;;22.8;54.2
23253;BME280;11795;47.054;15.408;2022-09-09T11:18:01;97300;;;22.7;54.5
23253;BME280;11795;47.054;15.408;2022-09-09T11:20:01;97300;;;22.8;54.9
23253;BME280;11795;47.054;15.408;2022-09-09T11:22:02;97290;;;22.7;54.7
23253;BME280;11795;47.054;15.408;2022-09-09T11:24:02;97300;;;22.6;54.7
23253;BME280;11795;47.054;15.408;2022-09-09T11:26:04;97290;;;22.7;54.7
23253;BME280;11795;47.054;15.408;2022-09-09T11:28:12;97290;;;22.6;55.7
23253;BME280;11795;47.054;15.408;2022-09-09T11:30:11;97280;;;22.8;55.6
23253;BME280;11795;47.054;15.408;2022-09-09T11:32:10;97280;;;22.7;55.5
23253;BME280;11795;47.054;15.408;2022-09-09T11:34:13;97280;;;22.7;55.4
23253;BME280;11795;47.054;15.408;2022-09-09T11:36:13;97270;;;22.9;54.9
23253;BME280;11795;47.054;15.408;2022-09-09T11:38:15;97280;;;22.8;54.6
23253;BME280;11795;47.054;15.408;2022-09-09T11:40:19;97270;;;22.9;54.0
23253;BME280;11795;47.054;15.408;2022-09-09T11:42:06;97260;;;22.9;53.5
23253;BME280;11795;47.054;15.408;2022-09-09T11:44:10;97260;;;22.9;54.0
23253;BME280;11795;47.054;15.408;2022-09-09T11:46:02;97250;;;23.1;53.8
23253;BME280;11795;47.054;15.408;2022-09-09T11:48:01;97260;;;23.0;54.2
23253;BME280;11795;47.054;15.408;2022-09-09T11:50:22;97250;;;23.1;53.5
23253;BME280;11795;47.054;15.408;2022-09-09T11:52:10;97250;;;23.1;52.7
23253;BME280;11795;47.054;15.408;2022-09-09T11:54:04;97250;;;23.1;53.2
23253;BME280;11795;47.054;15.408;2022-09-09T11:56:04;97250;;;23.3;53.0
23253;BME280;11795;47.054;15.408;2022-09-09T11:58:02;97260;;;23.2;52.8
23253;BME280;11795;47.054;15.408;2022-09-09T12:00:01;97250;;;23.3;52.2
23253;BME280;11795;47.054;15.408;2022-09-09T12:02:02;97250;;;23.3;51.8
23253;BME280;11795;47.054;15.408;2022-09-09T12:04:07;97240;;;23.2;52.0
23253;BME280;11795;47.054;15.408;2022-09-09T12:06:09;97240;;;23.4;51.6
23253;BME280;11795;47.054;15.408;2022-09-09T12:08:02;97230;;;23.2;51.9
23253;BME280;11795;47.054;15.408;2022-09-09T12:10:04;97230;;;23.3;51.5
23253;BME280;11795;47.054;15.408;2022-09-09T12:12:21;97230;;;23.3;51.2
23253;BME280;11795;47.054;15.408;2022-09-09T12:14:01;97230;;;23.2;51.6
23253;BME280;11795;47.054;15.408;2022-09-09T12:16:03;97220;;;23.4;51.2
23253;BME280;11795;47.054;15.408;2022-09-09T12:18:07;97220;;;23.3;51.6
23253;BME280;11795;47.054;15.408;2022-09-09T12:20:12;97220;;;23.2;51.7
23253;BME280;11795;47.054;15.408;2022-09-09T12:22:07;97220;;;23.3;51.3
23253;BME280;11795;47.054;15.408;2022-09-09T12:24:02;97220;;;23.2;51.0